createdAt,value
2018-03-26T00:00:38.782Z,20.90
2018-03-26T00:01:39.509Z,20.50
2018-03-26T00:02:40.182Z,20.90
2018-03-26T00:03:40.848Z,20.70
2018-03-26T00:04:41.506Z,21.90
2018-03-26T00:05:42.824Z,20.80
2018-03-26T00:06:43.479Z,20.70
2018-03-26T00:07:44.180Z,21.10
2018-03-26T00:08:44.836Z,20.40
2018-03-26T00:09:45.669Z,21.20
2018-03-26T00:10:46.358Z,22.10
2018-03-26T00:11:47.042Z,20.70
2018-03-26T00:12:47.682Z,22.30
2018-03-26T00:13:48.383Z,22.20
2018-03-26T00:14:49.034Z,20.90
2018-03-26T00:15:49.712Z,21.10
2018-03-26T00:16:50.499Z,21.60
2018-03-26T00:17:51.158Z,21.40
2018-03-26T00:18:51.843Z,22.60
2018-03-26T00:19:52.667Z,22.00
2018-03-26T00:20:53.392Z,22.30
2018-03-26T00:21:54.089Z,20.60
2018-03-26T00:22:54.840Z,22.10
2018-03-26T00:23:55.526Z,21.10
2018-03-26T00:24:56.154Z,22.40
2018-03-26T00:25:56.807Z,22.00
2018-03-26T00:26:57.518Z,22.20
2018-03-26T00:27:58.191Z,22.10
2018-03-26T00:28:58.863Z,22.80
2018-03-26T00:30:00.308Z,21.70
2018-03-26T00:31:00.966Z,21.70
2018-03-26T00:32:01.618Z,21.20
2018-03-26T00:33:02.320Z,20.80
2018-03-26T00:34:03.023Z,21.70
2018-03-26T00:35:03.686Z,20.90
2018-03-26T00:36:04.357Z,21.70
2018-03-26T00:37:05.028Z,21.20
2018-03-26T00:38:05.689Z,22.20
2018-03-26T00:39:06.401Z,21.00
2018-03-26T00:40:07.120Z,20.90
2018-03-26T00:41:07.789Z,21.50
2018-03-26T00:42:08.481Z,22.20
2018-03-26T00:43:09.161Z,22.80
2018-03-26T00:44:09.844Z,21.50
2018-03-26T00:45:10.635Z,21.40
2018-03-26T00:46:11.294Z,21.10
2018-03-26T00:47:11.999Z,20.50
2018-03-26T00:48:12.619Z,21.80
2018-03-26T00:49:14.427Z,21.70
2018-03-26T00:50:15.207Z,21.50
2018-03-26T00:51:15.862Z,20.60
2018-03-26T00:52:16.550Z,21.10
2018-03-26T00:53:17.317Z,21.00
2018-03-26T00:54:18.000Z,21.30
2018-03-26T00:55:20.123Z,21.50
2018-03-26T00:56:20.781Z,21.30
2018-03-26T00:57:21.443Z,21.60
2018-03-26T00:58:22.127Z,21.00
2018-03-26T00:59:22.830Z,22.10
2018-03-26T01:00:23.502Z,22.70
2018-03-26T01:01:24.167Z,21.50
2018-03-26T01:02:25.444Z,21.60
2018-03-26T01:03:26.089Z,21.90
2018-03-26T01:04:26.737Z,22.00
2018-03-26T01:05:27.736Z,22.40
2018-03-26T01:06:28.402Z,22.20
2018-03-26T01:07:29.236Z,20.70
2018-03-26T01:08:29.953Z,21.80
2018-03-26T01:09:30.588Z,22.00
2018-03-26T01:10:31.238Z,22.80
2018-03-26T01:11:31.887Z,20.60
2018-03-26T01:12:33.705Z,21.10
2018-03-26T01:13:34.387Z,20.40
2018-03-26T01:14:35.045Z,20.90
2018-03-26T01:15:35.706Z,22.10
2018-03-26T01:16:36.350Z,21.20
2018-03-26T01:17:37.036Z,21.40
2018-03-26T01:18:37.704Z,20.50
2018-03-26T01:19:39.080Z,19.50
2018-03-26T01:20:39.846Z,20.50
2018-03-26T01:21:40.577Z,20.30
2018-03-26T01:22:41.222Z,19.80
2018-03-26T01:23:41.957Z,19.00
2018-03-26T01:24:42.628Z,20.00
2018-03-26T01:25:43.334Z,18.60
2018-03-26T01:26:43.976Z,19.20
2018-03-26T01:27:44.653Z,18.00
2018-03-26T01:28:46.280Z,18.30
2018-03-26T01:29:47.008Z,18.10
2018-03-26T01:30:47.712Z,17.50
2018-03-26T01:31:48.352Z,17.70
2018-03-26T01:32:49.015Z,18.00
2018-03-26T01:33:49.691Z,17.60
2018-03-26T01:34:50.424Z,17.70
2018-03-26T01:35:51.125Z,16.60
2018-03-26T01:36:51.788Z,16.50
2018-03-26T01:37:52.552Z,16.10
2018-03-26T01:38:53.223Z,16.80
2018-03-26T01:39:53.913Z,16.70
2018-03-26T01:40:54.539Z,16.60
2018-03-26T01:41:55.269Z,15.80
2018-03-26T01:42:56.617Z,16.30
2018-03-26T01:43:57.301Z,16.80
2018-03-26T01:44:57.935Z,17.00
2018-03-26T01:45:58.623Z,16.30
2018-03-26T01:46:59.281Z,16.40
2018-03-26T01:48:00.083Z,16.20
2018-03-26T01:49:00.759Z,16.50
2018-03-26T01:50:01.447Z,16.70
2018-03-26T01:51:02.106Z,16.50
2018-03-26T01:52:02.804Z,17.00
2018-03-26T01:53:04.504Z,16.90
2018-03-26T01:54:05.163Z,16.50
2018-03-26T01:55:05.813Z,17.30
2018-03-26T01:56:06.493Z,17.00
2018-03-26T01:57:07.836Z,16.50
2018-03-26T01:58:08.495Z,16.80
2018-03-26T01:59:09.622Z,17.00
2018-03-26T02:00:10.481Z,16.70
2018-03-26T02:01:11.149Z,16.00
2018-03-26T02:02:11.879Z,15.30
2018-03-26T02:03:12.604Z,14.70
2018-03-26T02:04:13.259Z,16.10
2018-03-26T02:05:14.001Z,16.20
2018-03-26T02:06:14.685Z,15.90
2018-03-26T02:07:15.425Z,16.20
2018-03-26T02:08:16.064Z,16.50
2018-03-26T02:09:16.732Z,16.70
2018-03-26T02:10:18.078Z,16.50
2018-03-26T02:11:18.951Z,16.20
2018-03-26T02:12:19.949Z,17.30
2018-03-26T02:13:20.648Z,16.00
2018-03-26T02:14:21.523Z,15.70
2018-03-26T02:15:22.232Z,17.10
2018-03-26T02:16:26.903Z,15.60
2018-03-26T02:17:27.554Z,16.10
2018-03-26T02:18:56.834Z,16.40
2018-03-26T02:21:19.023Z,15.60
2018-03-26T02:22:02.193Z,17.10
2018-03-26T02:23:03.048Z,16.20
2018-03-26T02:24:03.914Z,16.20
2018-03-26T02:25:04.615Z,15.50
2018-03-26T02:26:05.293Z,16.50
2018-03-26T02:27:05.912Z,15.70
2018-03-26T02:28:07.683Z,16.40
2018-03-26T02:29:08.515Z,16.80
2018-03-26T02:30:09.165Z,16.80
2018-03-26T02:31:09.825Z,16.90
2018-03-26T02:32:10.472Z,16.00
2018-03-26T02:33:11.201Z,16.90
2018-03-26T02:34:11.889Z,16.30
2018-03-26T02:35:12.554Z,16.40
2018-03-26T02:36:13.237Z,17.10
2018-03-26T02:37:13.938Z,16.70
2018-03-26T02:38:14.591Z,15.90
2018-03-26T02:39:15.224Z,15.90
2018-03-26T02:40:15.880Z,16.40
2018-03-26T02:41:16.566Z,16.10
2018-03-26T02:42:17.208Z,15.00
2018-03-26T02:43:17.874Z,15.60
2018-03-26T02:44:18.578Z,15.00
2018-03-26T02:45:19.283Z,15.90
2018-03-26T02:46:20.016Z,15.40
2018-03-26T02:47:20.687Z,15.30
2018-03-26T02:48:21.343Z,16.00
2018-03-26T02:49:22.032Z,15.90
2018-03-26T02:50:22.687Z,15.60
2018-03-26T02:51:23.376Z,15.40
2018-03-26T02:52:24.125Z,15.40
2018-03-26T02:53:24.802Z,15.70
2018-03-26T02:54:25.446Z,16.00
2018-03-26T02:55:26.272Z,15.70
2018-03-26T02:56:27.011Z,16.60
2018-03-26T02:57:27.675Z,15.80
2018-03-26T02:58:30.130Z,15.90
2018-03-26T02:59:30.838Z,15.80
2018-03-26T03:00:31.521Z,15.80
2018-03-26T03:01:32.220Z,15.70
2018-03-26T03:02:32.924Z,15.40
2018-03-26T03:03:33.554Z,16.10
2018-03-26T03:04:34.269Z,15.60
2018-03-26T03:05:35.192Z,16.00
2018-03-26T03:06:35.834Z,15.70
2018-03-26T03:07:36.720Z,16.10
2018-03-26T03:08:37.445Z,17.00
2018-03-26T03:09:38.262Z,16.50
2018-03-26T03:10:39.053Z,16.00
2018-03-26T03:11:39.789Z,15.80
2018-03-26T03:12:40.463Z,15.80
2018-03-26T03:13:41.142Z,15.20
2018-03-26T03:14:41.809Z,16.60
2018-03-26T03:15:42.458Z,16.00
2018-03-26T03:16:44.727Z,15.30
2018-03-26T03:17:45.377Z,16.10
2018-03-26T03:18:47.044Z,15.80
2018-03-26T03:19:47.724Z,16.90
2018-03-26T03:20:48.373Z,15.80
2018-03-26T03:21:49.174Z,16.30
2018-03-26T03:22:49.821Z,16.30
2018-03-26T03:23:50.549Z,16.30
2018-03-26T03:24:51.221Z,16.60
2018-03-26T03:25:51.864Z,16.20
2018-03-26T03:26:52.581Z,16.10
2018-03-26T03:27:53.225Z,16.10
2018-03-26T03:28:53.955Z,16.10
2018-03-26T03:29:54.643Z,15.00
2018-03-26T03:30:55.306Z,14.80
2018-03-26T03:31:56.493Z,16.80
2018-03-26T03:32:57.176Z,15.80
2018-03-26T03:33:57.883Z,15.60
2018-03-26T03:34:58.546Z,16.20
2018-03-26T03:35:59.239Z,14.90
2018-03-26T03:36:59.960Z,16.10
2018-03-26T03:38:00.603Z,15.60
2018-03-26T03:39:01.730Z,16.60
2018-03-26T03:40:02.373Z,16.00
2018-03-26T03:41:03.057Z,16.30
2018-03-26T03:42:03.705Z,15.70
2018-03-26T03:43:05.393Z,16.40
2018-03-26T03:44:06.138Z,16.20
2018-03-26T03:45:06.794Z,15.80
2018-03-26T03:46:07.454Z,16.00
2018-03-26T03:47:09.874Z,16.40
2018-03-26T03:48:10.546Z,16.20
2018-03-26T03:49:11.189Z,16.70
2018-03-26T03:50:11.851Z,15.60
2018-03-26T03:51:12.494Z,16.30
2018-03-26T03:52:13.162Z,16.20
2018-03-26T03:53:13.804Z,16.60
2018-03-26T03:54:16.484Z,16.60
2018-03-26T03:55:17.135Z,16.00
2018-03-26T03:56:17.792Z,16.50
2018-03-26T03:57:18.423Z,15.80
2018-03-26T03:58:26.345Z,16.50
2018-03-26T03:59:27.016Z,16.20
2018-03-26T04:00:27.680Z,16.20
2018-03-26T04:01:31.742Z,15.40
2018-03-26T04:02:32.371Z,15.90
2018-03-26T04:03:33.012Z,15.90
2018-03-26T04:04:33.717Z,15.80
2018-03-26T04:05:34.366Z,15.60
2018-03-26T04:06:35.050Z,15.70
2018-03-26T04:07:35.706Z,16.30
2018-03-26T04:08:36.347Z,16.20
2018-03-26T04:09:37.021Z,16.70
2018-03-26T04:10:38.686Z,16.90
2018-03-26T04:11:39.400Z,16.80
2018-03-26T04:12:40.175Z,16.60
2018-03-26T04:13:40.827Z,17.20
2018-03-26T04:14:41.465Z,17.70
2018-03-26T04:15:42.152Z,17.20
2018-03-26T04:16:42.808Z,17.50
2018-03-26T04:17:44.638Z,17.00
2018-03-26T04:18:45.314Z,16.50
2018-03-26T04:19:45.963Z,17.30
2018-03-26T04:20:46.634Z,17.30
2018-03-26T04:21:48.029Z,17.80
2018-03-26T04:22:48.702Z,17.40
2018-03-26T04:23:49.402Z,17.50
2018-03-26T04:24:50.054Z,17.60
2018-03-26T04:25:50.732Z,18.40
2018-03-26T04:26:51.463Z,18.00
2018-03-26T04:27:52.082Z,16.90
2018-03-26T04:28:52.700Z,17.40
2018-03-26T04:29:53.368Z,16.80
2018-03-26T04:30:54.016Z,17.60
2018-03-26T04:31:54.683Z,18.10
2018-03-26T04:32:56.100Z,17.90
2018-03-26T04:33:56.787Z,17.40
2018-03-26T04:34:58.322Z,16.70
2018-03-26T04:35:59.019Z,17.10
2018-03-26T04:36:59.705Z,17.70
2018-03-26T04:38:00.511Z,16.60
2018-03-26T04:39:01.254Z,17.60
2018-03-26T04:40:01.904Z,16.80
2018-03-26T04:41:02.582Z,16.90
2018-03-26T04:42:03.212Z,17.20
2018-03-26T04:43:03.921Z,17.20
2018-03-26T04:44:04.608Z,16.70
2018-03-26T04:45:05.235Z,17.50
2018-03-26T04:46:05.901Z,17.20
2018-03-26T04:47:06.530Z,16.20
2018-03-26T04:48:07.709Z,16.60
2018-03-26T04:49:08.574Z,16.90
2018-03-26T04:50:09.246Z,16.70
2018-03-26T04:51:10.170Z,16.90
2018-03-26T04:52:15.790Z,17.10
2018-03-26T04:53:16.454Z,17.80
2018-03-26T04:54:17.147Z,16.70
2018-03-26T04:55:17.827Z,16.50
2018-03-26T04:56:26.316Z,15.80
2018-03-26T04:57:26.957Z,16.60
2018-03-26T04:58:27.594Z,15.80
2018-03-26T04:59:28.249Z,17.10
2018-03-26T05:00:28.900Z,16.60
2018-03-26T05:01:29.518Z,16.40
2018-03-26T05:02:30.199Z,16.90
2018-03-26T05:03:30.876Z,15.80
2018-03-26T05:04:31.547Z,16.10
2018-03-26T05:05:34.403Z,16.40
2018-03-26T05:06:35.791Z,16.40
2018-03-26T05:07:38.615Z,16.50
2018-03-26T05:08:39.296Z,16.20
2018-03-26T05:09:39.935Z,15.90
2018-03-26T05:10:42.661Z,15.80
2018-03-26T05:11:44.086Z,15.80
2018-03-26T05:12:44.786Z,16.30
2018-03-26T05:13:45.436Z,16.30
2018-03-26T05:14:46.147Z,16.60
2018-03-26T05:15:46.829Z,16.30
2018-03-26T05:16:47.459Z,17.70
2018-03-26T05:17:48.126Z,17.00
2018-03-26T05:18:50.533Z,18.50
2018-03-26T05:19:51.198Z,17.80
2018-03-26T05:20:51.861Z,19.60
2018-03-26T05:21:53.391Z,18.80
2018-03-26T05:22:54.067Z,18.90
2018-03-26T05:23:56.342Z,19.30
2018-03-26T05:24:57.033Z,18.70
2018-03-26T05:26:52.643Z,17.80
2018-03-26T05:27:53.301Z,17.80
2018-03-26T05:28:57.090Z,18.10
2018-03-26T05:29:57.776Z,18.40
2018-03-26T05:30:58.493Z,19.20
2018-03-26T05:32:00.017Z,18.20
2018-03-26T05:33:30.405Z,19.30
2018-03-26T05:34:31.081Z,19.30
2018-03-26T05:36:09.760Z,17.20
2018-03-26T05:37:10.519Z,18.00
2018-03-26T05:38:12.189Z,18.00
2018-03-26T05:39:12.887Z,17.10
2018-03-26T05:40:13.549Z,18.10
2018-03-26T05:41:14.209Z,19.10
2018-03-26T05:42:14.873Z,18.40
2018-03-26T05:43:31.674Z,18.10
2018-03-26T05:45:18.089Z,18.10
2018-03-26T05:46:19.059Z,27.20
2018-03-26T05:47:19.716Z,22.60
2018-03-26T05:48:20.393Z,22.60
2018-03-26T05:49:21.068Z,18.80
2018-03-26T05:50:21.714Z,20.10
2018-03-26T05:51:24.032Z,18.90
2018-03-26T05:52:24.759Z,18.70
2018-03-26T05:53:25.431Z,17.80
2018-03-26T05:54:26.449Z,17.60
2018-03-26T05:55:27.634Z,18.40
2018-03-26T05:56:40.071Z,18.70
2018-03-26T05:57:40.757Z,19.60
2018-03-26T05:58:41.431Z,22.00
2018-03-26T05:59:46.919Z,24.50
2018-03-26T06:00:47.656Z,26.70
2018-03-26T06:01:48.322Z,21.70
2018-03-26T06:02:49.000Z,19.80
2018-03-26T06:03:49.656Z,18.70
2018-03-26T06:04:56.915Z,27.60
2018-03-26T06:05:57.588Z,25.40
2018-03-26T06:06:58.359Z,21.00
2018-03-26T06:07:59.015Z,19.50
2018-03-26T06:08:59.688Z,19.40
2018-03-26T06:10:00.367Z,18.40
2018-03-26T06:11:01.045Z,18.10
2018-03-26T06:12:01.731Z,18.60
2018-03-26T06:13:02.406Z,17.50
2018-03-26T06:14:03.064Z,17.80
2018-03-26T06:15:03.768Z,18.20
2018-03-26T06:16:04.443Z,19.40
2018-03-26T06:17:26.328Z,18.70
2018-03-26T06:18:27.016Z,18.40
2018-03-26T06:19:57.631Z,18.70
2018-03-26T06:21:27.089Z,18.70
2018-03-26T06:22:27.810Z,18.70
2018-03-26T06:23:28.634Z,19.20
2018-03-26T06:24:29.313Z,19.90
2018-03-26T06:25:57.370Z,19.30
2018-03-26T06:26:58.013Z,21.30
2018-03-26T06:27:58.670Z,21.20
2018-03-26T06:28:59.322Z,22.90
2018-03-26T06:29:59.975Z,22.50
2018-03-26T06:31:00.623Z,22.70
2018-03-26T06:32:01.281Z,27.00
2018-03-26T06:33:39.930Z,27.50
2018-03-26T06:34:56.552Z,25.90
2018-03-26T06:35:57.260Z,25.90
2018-03-26T06:37:28.777Z,26.60
2018-03-26T06:38:29.706Z,24.30
2018-03-26T06:39:30.387Z,22.90
2018-03-26T06:42:33.194Z,22.10
2018-03-26T06:43:06.566Z,19.70
2018-03-26T06:44:26.506Z,19.30
2018-03-26T06:45:27.311Z,17.90
2018-03-26T06:46:28.011Z,18.60
2018-03-26T06:47:56.016Z,19.30
2018-03-26T06:48:56.776Z,20.40
2018-03-26T06:49:57.462Z,20.90
2018-03-26T06:50:58.119Z,19.40
2018-03-26T06:51:58.884Z,21.80
2018-03-26T06:52:59.553Z,22.00
2018-03-26T06:54:00.211Z,22.60
2018-03-26T06:55:01.174Z,22.10
2018-03-26T06:56:01.839Z,22.60
2018-03-26T06:57:02.516Z,22.40
2018-03-26T06:58:03.221Z,21.10
2018-03-26T06:59:03.888Z,23.00
2018-03-26T07:00:04.567Z,21.70
2018-03-26T07:01:18.675Z,21.50
2018-03-26T07:02:19.342Z,21.80
2018-03-26T07:03:20.082Z,21.30
2018-03-26T07:04:20.758Z,20.70
2018-03-26T07:05:48.231Z,20.30
2018-03-26T07:07:16.496Z,21.30
2018-03-26T07:08:17.321Z,20.90
2018-03-26T07:09:46.755Z,20.50
2018-03-26T07:11:16.930Z,20.40
2018-03-26T07:12:17.621Z,20.10
2018-03-26T07:13:18.314Z,19.50
2018-03-26T07:14:18.994Z,19.50
2018-03-26T07:15:46.620Z,19.80
2018-03-26T07:16:47.292Z,19.70
2018-03-26T07:17:47.950Z,20.80
2018-03-26T07:18:48.598Z,20.80
2018-03-26T07:19:49.316Z,20.50
2018-03-26T07:20:50.019Z,19.60
2018-03-26T07:22:16.912Z,20.20
2018-03-26T07:23:47.017Z,20.00
2018-03-26T07:24:47.683Z,20.00
2018-03-26T07:25:48.343Z,22.00
2018-03-26T07:27:06.731Z,21.60
2018-03-26T07:28:11.116Z,21.10
2018-03-26T07:29:11.773Z,21.90
2018-03-26T07:30:12.458Z,21.20
2018-03-26T07:31:13.168Z,21.10
2018-03-26T07:32:13.974Z,20.60
2018-03-26T07:33:46.702Z,21.70
2018-03-26T07:34:47.370Z,21.70
2018-03-26T07:35:48.083Z,22.90
2018-03-26T07:37:17.039Z,23.00
2018-03-26T07:38:17.696Z,23.00
2018-03-26T07:39:18.367Z,22.20
2018-03-26T07:40:19.038Z,23.70
2018-03-26T07:41:19.748Z,22.80
2018-03-26T07:42:20.370Z,21.60
2018-03-26T07:43:47.143Z,21.20
2018-03-26T07:44:47.806Z,21.20
2018-03-26T07:45:48.468Z,21.60
2018-03-26T07:46:49.132Z,21.80
2018-03-26T07:47:57.511Z,21.90
2018-03-26T07:48:58.151Z,21.30
2018-03-26T07:49:58.796Z,20.80
2018-03-26T07:50:59.433Z,21.50
2018-03-26T07:52:00.134Z,21.60
2018-03-26T07:53:00.786Z,22.00
2018-03-26T07:54:17.359Z,20.40
2018-03-26T07:55:18.015Z,21.20
2018-03-26T07:56:18.709Z,20.00
2018-03-26T07:57:19.396Z,20.70
2018-03-26T08:00:16.817Z,20.50
2018-03-26T08:01:46.819Z,20.00
2018-03-26T08:02:47.493Z,20.00
2018-03-26T08:03:48.182Z,21.00
2018-03-26T08:04:48.874Z,20.90
2018-03-26T08:05:49.524Z,20.20
2018-03-26T08:06:50.204Z,20.60
2018-03-26T08:07:58.737Z,21.40
2018-03-26T08:08:59.409Z,22.60
2018-03-26T08:10:00.053Z,22.40
2018-03-26T08:11:18.208Z,23.00
2018-03-26T08:12:47.481Z,23.00
2018-03-26T08:13:48.153Z,23.00
2018-03-26T08:14:48.849Z,23.30
2018-03-26T08:15:49.626Z,22.70
2018-03-26T08:16:50.340Z,22.90
2018-03-26T08:17:58.941Z,24.70
2018-03-26T08:18:59.615Z,23.30
2018-03-26T08:20:00.651Z,24.10
2018-03-26T08:21:01.316Z,23.50
2018-03-26T08:22:16.598Z,22.40
2018-03-26T08:23:17.279Z,22.60
2018-03-26T08:24:17.935Z,21.70
2018-03-26T08:25:18.648Z,22.50
2018-03-26T08:26:19.307Z,22.60
2018-03-26T08:27:19.966Z,21.30
2018-03-26T08:28:20.678Z,23.10
2018-03-26T08:29:21.327Z,23.70
2018-03-26T08:30:46.593Z,23.10
2018-03-26T08:31:47.270Z,23.50
2018-03-26T08:33:16.853Z,22.60
2018-03-26T08:34:17.491Z,22.60
2018-03-26T08:35:18.157Z,22.60
2018-03-26T08:36:18.860Z,23.30
2018-03-26T08:37:54.611Z,23.30
2018-03-26T08:38:55.271Z,23.30
2018-03-26T08:39:55.935Z,22.90
2018-03-26T08:42:43.294Z,24.30
2018-03-26T08:43:43.931Z,23.90
2018-03-26T08:44:44.600Z,23.90
2018-03-26T08:45:45.258Z,23.70
2018-03-26T08:46:45.917Z,24.40
2018-03-26T08:47:46.592Z,24.20
2018-03-26T08:48:47.257Z,25.30
2018-03-26T08:50:16.884Z,25.30
2018-03-26T08:51:46.976Z,25.30
2018-03-26T08:52:47.610Z,25.30
2018-03-26T08:53:48.361Z,26.10
2018-03-26T08:54:48.998Z,24.90
2018-03-26T08:55:51.262Z,27.30
2018-03-26T08:57:16.687Z,26.00
2018-03-26T08:58:46.983Z,26.50
2018-03-26T08:59:47.612Z,26.50
2018-03-26T09:00:48.321Z,25.30
2018-03-26T09:02:16.593Z,25.30
2018-03-26T09:03:17.278Z,26.10
2018-03-26T09:04:17.924Z,26.60
2018-03-26T09:05:18.586Z,25.80
2018-03-26T09:06:19.281Z,26.90
2018-03-26T09:07:19.992Z,27.70
2018-03-26T09:08:20.748Z,26.10
2018-03-26T09:09:21.525Z,26.70
2018-03-26T09:10:22.176Z,25.80
2018-03-26T09:11:22.855Z,26.80
2018-03-26T09:12:23.543Z,26.30
2018-03-26T09:13:24.199Z,26.00
2018-03-26T09:14:24.868Z,25.80
2018-03-26T09:15:25.580Z,27.10
2018-03-26T09:16:26.243Z,27.00
2018-03-26T09:17:26.891Z,26.40
2018-03-26T09:20:14.955Z,27.30
2018-03-26T09:21:15.649Z,27.90
2018-03-26T09:22:16.312Z,27.50
2018-03-26T09:23:16.983Z,27.60
2018-03-26T09:24:17.635Z,28.90
2018-03-26T09:25:18.318Z,28.70
2018-03-26T09:26:18.995Z,28.70
2018-03-26T09:27:19.705Z,29.20
2018-03-26T09:28:20.373Z,28.50
2018-03-26T09:29:21.070Z,26.70
2018-03-26T09:30:21.757Z,27.80
2018-03-26T09:31:22.429Z,28.60
2018-03-26T09:32:48.178Z,28.10
2018-03-26T09:33:48.863Z,27.60
2018-03-26T09:34:49.563Z,26.90
2018-03-26T09:35:50.316Z,26.40
2018-03-26T09:36:51.067Z,28.10
2018-03-26T09:38:21.885Z,26.60
2018-03-26T09:39:22.575Z,26.60
2018-03-26T09:40:23.216Z,28.80
2018-03-26T09:41:23.848Z,28.00
2018-03-26T09:42:24.663Z,27.00
2018-03-26T09:43:25.373Z,29.10
2018-03-26T09:44:26.037Z,28.00
2018-03-26T09:45:26.714Z,29.80
2018-03-26T09:46:27.348Z,28.30
2018-03-26T09:47:28.032Z,28.20
2018-03-26T09:48:28.755Z,29.40
2018-03-26T09:49:29.461Z,28.80
2018-03-26T09:50:34.839Z,29.10
2018-03-26T09:51:36.225Z,29.30
2018-03-26T09:52:36.888Z,28.60
2018-03-26T09:54:15.051Z,29.50
2018-03-26T09:55:17.302Z,29.30
2018-03-26T09:56:18.076Z,30.20
2018-03-26T09:57:20.833Z,28.90
2018-03-26T09:58:28.652Z,30.10
2018-03-26T09:59:29.788Z,29.00
2018-03-26T10:00:30.491Z,29.70
2018-03-26T10:01:31.167Z,28.50
2018-03-26T10:02:31.856Z,28.90
2018-03-26T10:03:32.517Z,31.10
2018-03-26T10:04:33.246Z,29.80
2018-03-26T10:05:33.955Z,28.40
2018-03-26T10:06:34.612Z,28.60
2018-03-26T10:07:35.267Z,30.30
2018-03-26T10:08:49.447Z,30.40
2018-03-26T10:09:50.117Z,29.60
2018-03-26T10:10:50.772Z,29.60
2018-03-26T10:11:51.437Z,29.90
2018-03-26T10:12:52.146Z,29.40
2018-03-26T10:13:52.800Z,30.20
2018-03-26T10:15:18.087Z,30.90
2018-03-26T10:16:53.116Z,29.40
2018-03-26T10:17:57.693Z,30.60
2018-03-26T10:18:58.369Z,30.10
2018-03-26T10:19:59.033Z,29.60
2018-03-26T10:20:59.790Z,31.00
2018-03-26T10:22:24.597Z,30.10
2018-03-26T10:23:25.282Z,30.40
2018-03-26T10:24:25.943Z,30.10
2018-03-26T10:25:34.516Z,28.80
2018-03-26T10:26:35.188Z,30.80
2018-03-26T10:29:23.825Z,28.90
2018-03-26T10:30:24.582Z,30.60
2018-03-26T10:31:25.836Z,31.70
2018-03-26T10:32:26.545Z,30.10
2018-03-26T10:33:46.910Z,31.10
2018-03-26T10:34:47.581Z,29.30
2018-03-26T10:35:48.454Z,30.20
2018-03-26T10:36:49.116Z,30.10
2018-03-26T10:37:50.443Z,31.20
2018-03-26T10:38:51.160Z,31.00
2018-03-26T10:39:51.898Z,30.40
2018-03-26T10:40:52.584Z,29.40
2018-03-26T10:41:53.286Z,31.20
2018-03-26T10:42:53.935Z,30.60
2018-03-26T10:43:54.629Z,30.50
2018-03-26T10:44:55.305Z,30.40
2018-03-26T10:45:55.976Z,30.50
2018-03-26T10:46:56.645Z,30.60
2018-03-26T10:47:57.340Z,31.50
2018-03-26T10:48:58.139Z,31.10
2018-03-26T10:50:12.459Z,31.70
2018-03-26T10:51:13.266Z,31.80
2018-03-26T10:52:13.916Z,31.70
2018-03-26T10:53:16.094Z,30.90
2018-03-26T10:54:17.048Z,31.40
2018-03-26T10:55:17.727Z,31.00
2018-03-26T10:56:20.856Z,31.90
2018-03-26T10:57:54.270Z,31.00
2018-03-26T10:58:54.975Z,31.00
2018-03-26T11:00:03.153Z,30.90
2018-03-26T11:01:04.489Z,30.30
2018-03-26T11:02:05.177Z,31.80
2018-03-26T11:03:05.899Z,30.90
2018-03-26T11:04:17.058Z,30.60
2018-03-26T11:05:47.186Z,32.10
2018-03-26T11:06:47.836Z,32.10
2018-03-26T11:07:48.525Z,31.00
2018-03-26T11:08:49.184Z,30.00
2018-03-26T11:09:49.857Z,32.00
2018-03-26T11:10:50.520Z,31.20
2018-03-26T11:12:18.533Z,32.50
2018-03-26T11:13:19.258Z,31.40
2018-03-26T11:14:47.874Z,31.80
2018-03-26T11:15:48.563Z,31.60
2018-03-26T11:17:16.959Z,31.00
2018-03-26T11:18:47.077Z,31.90
2018-03-26T11:19:47.774Z,31.90
2018-03-26T11:20:48.441Z,30.70
2018-03-26T11:22:19.427Z,31.20
2018-03-26T11:23:20.089Z,30.50
2018-03-26T11:24:20.801Z,31.40
2018-03-26T11:25:21.504Z,31.40
2018-03-26T11:26:22.168Z,30.90
2018-03-26T11:27:22.835Z,31.20
2018-03-26T11:28:23.574Z,30.90
2018-03-26T11:29:57.278Z,32.10
2018-03-26T11:30:58.712Z,31.80
2018-03-26T11:31:59.405Z,32.70
2018-03-26T11:33:17.370Z,31.90
2018-03-26T11:34:18.122Z,31.20
2018-03-26T11:35:18.866Z,31.60
2018-03-26T11:36:47.530Z,32.10
2018-03-26T11:38:16.869Z,31.40
2018-03-26T11:39:17.525Z,33.00
2018-03-26T11:40:18.145Z,31.40
2018-03-26T11:41:49.269Z,30.90
2018-03-26T11:42:49.956Z,32.20
2018-03-26T11:43:50.641Z,30.70
2018-03-26T11:44:51.288Z,32.30
2018-03-26T11:46:16.688Z,32.00
2018-03-26T11:49:02.845Z,32.40
2018-03-26T11:50:03.551Z,31.70
2018-03-26T11:51:04.294Z,32.70
2018-03-26T11:52:05.019Z,32.10
2018-03-26T11:53:05.755Z,31.80
2018-03-26T11:55:53.782Z,32.90
2018-03-26T11:58:49.768Z,30.30
2018-03-26T12:00:26.952Z,31.40
2018-03-26T12:01:27.617Z,32.20
2018-03-26T12:02:28.260Z,31.50
2018-03-26T12:03:29.014Z,30.90
2018-03-26T12:04:29.721Z,30.30
2018-03-26T12:05:30.351Z,31.00
2018-03-26T12:06:31.017Z,32.00
2018-03-26T12:07:31.694Z,31.50
2018-03-26T12:08:32.336Z,31.10
2018-03-26T12:09:33.003Z,31.40
2018-03-26T12:10:33.690Z,31.00
2018-03-26T12:11:34.327Z,31.00
2018-03-26T12:12:35.004Z,32.30
2018-03-26T12:13:35.628Z,31.20
2018-03-26T12:14:36.345Z,32.20
2018-03-26T12:15:37.069Z,32.30
2018-03-26T12:16:37.732Z,31.40
2018-03-26T12:17:38.417Z,32.60
2018-03-26T12:18:39.142Z,33.90
2018-03-26T12:19:39.871Z,33.20
2018-03-26T12:20:40.526Z,33.00
2018-03-26T12:21:41.148Z,31.70
2018-03-26T12:22:41.784Z,32.40
2018-03-26T12:23:47.964Z,32.30
2018-03-26T12:25:17.205Z,33.20
2018-03-26T12:26:17.931Z,33.20
2018-03-26T12:27:18.573Z,32.10
2018-03-26T12:28:19.782Z,31.40
2018-03-26T12:29:48.782Z,31.20
2018-03-26T12:30:49.428Z,30.70
2018-03-26T12:31:50.099Z,30.40
2018-03-26T12:32:59.270Z,30.80
2018-03-26T12:34:07.158Z,31.60
2018-03-26T12:35:07.805Z,30.90
2018-03-26T12:36:17.474Z,32.20
2018-03-26T12:37:54.582Z,32.70
2018-03-26T12:38:55.239Z,32.70
2018-03-26T12:39:55.964Z,33.50
2018-03-26T12:40:56.700Z,30.90
2018-03-26T12:41:57.458Z,32.60
2018-03-26T12:42:58.160Z,32.00
2018-03-26T12:43:58.856Z,31.50
2018-03-26T12:44:59.508Z,32.00
2018-03-26T12:46:00.196Z,31.00
2018-03-26T12:47:00.874Z,30.40
2018-03-26T12:48:24.742Z,29.30
2018-03-26T12:51:18.787Z,29.30
2018-03-26T12:52:25.956Z,28.60
2018-03-26T12:53:35.826Z,28.60
2018-03-26T12:54:36.560Z,30.10
2018-03-26T12:55:47.316Z,30.10
2018-03-26T12:56:48.059Z,30.10
2018-03-26T12:57:57.399Z,29.90
2018-03-26T12:59:29.297Z,31.90
2018-03-26T13:00:30.035Z,30.20
2018-03-26T13:01:46.964Z,30.30
2018-03-26T13:02:47.744Z,30.30
2018-03-26T13:03:48.450Z,31.80
2018-03-26T13:04:49.251Z,30.80
2018-03-26T13:06:06.017Z,31.10
2018-03-26T13:07:06.687Z,31.10
2018-03-26T13:08:07.388Z,31.10
2018-03-26T13:09:08.126Z,30.30
2018-03-26T13:10:08.808Z,29.90
2018-03-26T13:11:09.558Z,29.80
2018-03-26T13:12:10.300Z,30.60
2018-03-26T13:13:11.045Z,30.80
2018-03-26T13:14:11.736Z,31.10
2018-03-26T13:15:12.454Z,30.80
2018-03-26T13:16:13.245Z,31.20
2018-03-26T13:17:13.974Z,29.20
2018-03-26T13:18:22.020Z,30.40
2018-03-26T13:19:47.187Z,30.80
2018-03-26T13:20:47.865Z,30.00
2018-03-26T13:23:35.636Z,29.60
2018-03-26T13:24:36.420Z,29.60
2018-03-26T13:25:46.659Z,29.50
2018-03-26T13:26:47.450Z,29.60
2018-03-26T13:27:55.851Z,29.20
2018-03-26T13:28:56.537Z,29.90
2018-03-26T13:29:57.207Z,30.20
2018-03-26T13:30:57.904Z,28.60
2018-03-26T13:32:18.889Z,29.10
2018-03-26T13:33:19.580Z,28.80
2018-03-26T13:34:20.221Z,28.90
2018-03-26T13:35:20.950Z,29.10
2018-03-26T13:36:21.635Z,29.50
2018-03-26T13:37:22.318Z,29.70
2018-03-26T13:38:23.040Z,30.00
2018-03-26T13:39:23.760Z,29.90
2018-03-26T13:40:47.214Z,28.40
2018-03-26T13:41:47.906Z,29.40
2018-03-26T13:42:48.650Z,28.70
2018-03-26T13:43:49.312Z,29.40
2018-03-26T13:44:50.000Z,28.80
2018-03-26T13:45:50.806Z,29.30
2018-03-26T13:46:51.486Z,28.50
2018-03-26T13:47:52.159Z,28.40
2018-03-26T13:48:52.857Z,29.20
2018-03-26T13:49:53.557Z,27.90
2018-03-26T13:50:54.261Z,27.90
2018-03-26T13:52:28.604Z,28.10
2018-03-26T13:53:29.383Z,29.10
2018-03-26T13:54:47.326Z,27.70
2018-03-26T13:56:25.316Z,29.20
2018-03-26T13:57:26.007Z,27.40
2018-03-26T13:58:26.735Z,28.00
2018-03-26T13:59:27.394Z,27.80